This is the latest recevied weather packets stored in our database for station/object W3EJE-13. If no packets are shown the sender has not sent any weather packets the latest 10 day(s).
| Time | Temp. | Humidity | Pressure | Rain* | Wind** | Luminosity | Snow |
|---|---|---|---|---|---|---|---|
| 1777932434 | 21.11° C | 55% | 1010.9 hPa | 0 mm | - | 137 W/m² | - |
| 1777932132 | 20.56° C | 58% | 1010.9 hPa | 0 mm | - | 241 W/m² | - |
| 1777931829 | 21.67° C | 55% | 1010.8 hPa | 0 mm | - | 316 W/m² | - |
| 1777931526 | 21.11° C | 55% | 1010.8 hPa | 0 mm | - | 318 W/m² | - |
| 1777931221 | 21.11° C | 55% | 1011.1 hPa | 0 mm | - | 331 W/m² | - |
| 1777930918 | 20.56° C | 56% | 1011 hPa | 0 mm | - | 362 W/m² | - |
| 1777930615 | 20° C | 58% | 1011.1 hPa | 0 mm | - | 345 W/m² | - |
| 1777930311 | 21.11° C | 55% | 1010.9 hPa | 0 mm | - | 99 W/m² | - |
| 1777930008 | 20° C | 57% | 1010.9 hPa | 0 mm | - | 425 W/m² | - |
| 1777929704 | 21.11° C | 55% | 1011 hPa | 0 mm | - | 99 W/m² | - |
| 1777929402 | 20.56° C | 57% | 1011 hPa | 0 mm | - | 426 W/m² | - |
| 1777929098 | 20° C | 57% | 1010.9 hPa | 0 mm | - | 465 W/m² | - |
| 1777928796 | 21.11° C | 55% | 1010.9 hPa | 0 mm | - | 472 W/m² | - |
| 1777928492 | 21.11° C | 56% | 1010.9 hPa | 0 mm | - | 504 W/m² | - |
| 1777928190 | 21.11° C | 58% | 1010.9 hPa | 0 mm | - | 396 W/m² | - |
| 1777927887 | 21.11° C | 58% | 1010.9 hPa | 0 mm | - | 553 W/m² | - |
| 1777927586 | 20.56° C | 59% | 1010.9 hPa | 0 mm | - | 569 W/m² | - |
| 1777927284 | 21.11° C | 55% | 1010.7 hPa | 0 mm | - | 560 W/m² | - |
| 1777926982 | 21.11° C | 56% | 1010.6 hPa | 0 mm | - | 331 W/m² | - |
| 1777926680 | 20° C | 60% | 1010.6 hPa | 0 mm | - | 229 W/m² | - |
| 1777926374 | 20° C | 59% | 1010.5 hPa | 0 mm | - | 272 W/m² | - |
| 1777926072 | 20° C | 59% | 1010.7 hPa | 0 mm | - | 146 W/m² | - |
| 1777925768 | 20° C | 59% | 1010.9 hPa | 0 mm | - | 167 W/m² | - |
| 1777925466 | 20° C | 57% | 1010.8 hPa | 0 mm | - | 116 W/m² | - |
| 1777925163 | 20.56° C | 56% | 1011 hPa | 0 mm | - | 172 W/m² | - |
* Rain latest hour (hover to see other rain measurements)
** Current wind speed in m/s (hover to see current wind gust speed)